sensor_id;sensor_type;location;lat;lon;timestamp;P1;durP1;ratioP1;P2;durP2;ratioP2
42488;SDS011;28118;52.388;9.452;2022-12-26T00:00:21;6.32;;;5.05;;
42488;SDS011;28118;52.388;9.452;2022-12-26T00:02:48;7.10;;;5.93;;
42488;SDS011;28118;52.388;9.452;2022-12-26T00:05:14;5.57;;;5.00;;
42488;SDS011;28118;52.388;9.452;2022-12-26T00:07:41;6.63;;;5.03;;
42488;SDS011;28118;52.388;9.452;2022-12-26T00:10:08;6.00;;;5.05;;
42488;SDS011;28118;52.388;9.452;2022-12-26T00:12:34;7.47;;;5.57;;
42488;SDS011;28118;52.388;9.452;2022-12-26T00:15:01;9.48;;;7.05;;
42488;SDS011;28118;52.388;9.452;2022-12-26T00:17:28;7.32;;;6.22;;
42488;SDS011;28118;52.388;9.452;2022-12-26T00:19:55;13.05;;;9.57;;
42488;SDS011;28118;52.388;9.452;2022-12-26T00:22:21;16.58;;;11.90;;
42488;SDS011;28118;52.388;9.452;2022-12-26T00:24:48;21.95;;;15.90;;
42488;SDS011;28118;52.388;9.452;2022-12-26T00:27:15;14.95;;;10.48;;
42488;SDS011;28118;52.388;9.452;2022-12-26T00:29:41;15.75;;;12.15;;
42488;SDS011;28118;52.388;9.452;2022-12-26T00:32:08;13.50;;;12.07;;
42488;SDS011;28118;52.388;9.452;2022-12-26T00:34:35;16.40;;;12.50;;
42488;SDS011;28118;52.388;9.452;2022-12-26T00:37:01;13.20;;;11.90;;
42488;SDS011;28118;52.388;9.452;2022-12-26T00:39:28;11.40;;;10.20;;
42488;SDS011;28118;52.388;9.452;2022-12-26T00:41:55;11.77;;;10.57;;
42488;SDS011;28118;52.388;9.452;2022-12-26T00:44:21;9.65;;;8.65;;
42488;SDS011;28118;52.388;9.452;2022-12-26T00:46:48;7.78;;;6.97;;
42488;SDS011;28118;52.388;9.452;2022-12-26T00:49:14;8.02;;;6.47;;
42488;SDS011;28118;52.388;9.452;2022-12-26T00:51:41;13.23;;;7.60;;
42488;SDS011;28118;52.388;9.452;2022-12-26T00:54:08;8.55;;;7.07;;
42488;SDS011;28118;52.388;9.452;2022-12-26T00:56:34;12.32;;;8.45;;
42488;SDS011;28118;52.388;9.452;2022-12-26T00:59:01;10.70;;;6.70;;
42488;SDS011;28118;52.388;9.452;2022-12-26T01:01:28;9.65;;;7.80;;
42488;SDS011;28118;52.388;9.452;2022-12-26T01:03:56;8.25;;;7.20;;
42488;SDS011;28118;52.388;9.452;2022-12-26T01:06:23;6.53;;;5.72;;
42488;SDS011;28118;52.388;9.452;2022-12-26T01:08:50;5.72;;;5.03;;
42488;SDS011;28118;52.388;9.452;2022-12-26T01:11:17;8.98;;;7.85;;
42488;SDS011;28118;52.388;9.452;2022-12-26T01:14:05;10.05;;;7.18;;
42488;SDS011;28118;52.388;9.452;2022-12-26T01:16:35;9.93;;;7.65;;
42488;SDS011;28118;52.388;9.452;2022-12-26T01:19:02;9.68;;;8.18;;
42488;SDS011;28118;52.388;9.452;2022-12-26T01:21:30;9.98;;;7.93;;
42488;SDS011;28118;52.388;9.452;2022-12-26T01:23:56;7.72;;;6.18;;
42488;SDS011;28118;52.388;9.452;2022-12-26T01:26:23;6.07;;;5.03;;
42488;SDS011;28118;52.388;9.452;2022-12-26T01:28:50;10.60;;;6.72;;
42488;SDS011;28118;52.388;9.452;2022-12-26T01:31:18;6.82;;;5.53;;
42488;SDS011;28118;52.388;9.452;2022-12-26T01:33:45;7.82;;;7.03;;
42488;SDS011;28118;52.388;9.452;2022-12-26T01:36:13;7.72;;;6.93;;
42488;SDS011;28118;52.388;9.452;2022-12-26T01:38:40;8.00;;;5.90;;
42488;SDS011;28118;52.388;9.452;2022-12-26T01:41:07;7.50;;;6.70;;
42488;SDS011;28118;52.388;9.452;2022-12-26T01:43:57;7.50;;;6.65;;
42488;SDS011;28118;52.388;9.452;2022-12-26T01:46:44;9.60;;;7.78;;
42488;SDS011;28118;52.388;9.452;2022-12-26T01:49:18;8.80;;;7.20;;
42488;SDS011;28118;52.388;9.452;2022-12-26T01:51:47;7.75;;;7.03;;
42488;SDS011;28118;52.388;9.452;2022-12-26T01:54:18;9.60;;;8.18;;
42488;SDS011;28118;52.388;9.452;2022-12-26T01:57:08;10.60;;;8.30;;
42488;SDS011;28118;52.388;9.452;2022-12-26T01:59:44;8.77;;;7.35;;
42488;SDS011;28118;52.388;9.452;2022-12-26T02:02:13;10.07;;;7.03;;
42488;SDS011;28118;52.388;9.452;2022-12-26T02:04:43;10.45;;;8.35;;
42488;SDS011;28118;52.388;9.452;2022-12-26T02:07:32;10.00;;;8.43;;
42488;SDS011;28118;52.388;9.452;2022-12-26T02:10:02;10.10;;;7.07;;
42488;SDS011;28118;52.388;9.452;2022-12-26T02:12:34;9.20;;;7.65;;
42488;SDS011;28118;52.388;9.452;2022-12-26T02:15:09;19.55;;;11.35;;
42488;SDS011;28118;52.388;9.452;2022-12-26T02:17:38;13.82;;;10.45;;
42488;SDS011;28118;52.388;9.452;2022-12-26T02:20:18;12.18;;;9.73;;
42488;SDS011;28118;52.388;9.452;2022-12-26T02:42:56;14.25;;;12.68;;
42488;SDS011;28118;52.388;9.452;2022-12-26T02:51:44;15.30;;;11.60;;
42488;SDS011;28118;52.388;9.452;2022-12-26T02:57:50;12.20;;;10.95;;
42488;SDS011;28118;52.388;9.452;2022-12-26T03:00:43;21.10;;;10.60;;
42488;SDS011;28118;52.388;9.452;2022-12-26T03:03:31;15.68;;;12.25;;
42488;SDS011;28118;52.388;9.452;2022-12-26T03:06:21;15.80;;;12.95;;
42488;SDS011;28118;52.388;9.452;2022-12-26T03:09:13;17.50;;;13.23;;
42488;SDS011;28118;52.388;9.452;2022-12-26T03:12:06;16.45;;;13.52;;
42488;SDS011;28118;52.388;9.452;2022-12-26T03:15:10;15.07;;;13.55;;
42488;SDS011;28118;52.388;9.452;2022-12-26T03:17:40;14.32;;;12.50;;
42488;SDS011;28118;52.388;9.452;2022-12-26T03:20:32;18.55;;;13.93;;
42488;SDS011;28118;52.388;9.452;2022-12-26T03:23:10;16.48;;;13.82;;
42488;SDS011;28118;52.388;9.452;2022-12-26T03:25:41;12.35;;;10.80;;
42488;SDS011;28118;52.388;9.452;2022-12-26T03:28:28;14.35;;;12.85;;
42488;SDS011;28118;52.388;9.452;2022-12-26T03:30:56;16.70;;;12.60;;
42488;SDS011;28118;52.388;9.452;2022-12-26T03:33:44;14.35;;;12.30;;
42488;SDS011;28118;52.388;9.452;2022-12-26T03:36:34;13.63;;;10.88;;
42488;SDS011;28118;52.388;9.452;2022-12-26T03:42:44;13.32;;;11.73;;
42488;SDS011;28118;52.388;9.452;2022-12-26T03:45:37;16.02;;;13.07;;
42488;SDS011;28118;52.388;9.452;2022-12-26T03:57:58;11.80;;;10.60;;
42488;SDS011;28118;52.388;9.452;2022-12-26T04:00:52;11.95;;;10.80;;
42488;SDS011;28118;52.388;9.452;2022-12-26T04:03:41;10.52;;;9.52;;
42488;SDS011;28118;52.388;9.452;2022-12-26T04:06:33;10.70;;;9.60;;
42488;SDS011;28118;52.388;9.452;2022-12-26T04:09:42;12.95;;;10.80;;
42488;SDS011;28118;52.388;9.452;2022-12-26T04:12:39;11.43;;;10.23;;
42488;SDS011;28118;52.388;9.452;2022-12-26T04:18:47;11.48;;;10.43;;
42488;SDS011;28118;52.388;9.452;2022-12-26T04:21:44;16.60;;;11.32;;
42488;SDS011;28118;52.388;9.452;2022-12-26T04:24:38;16.33;;;12.40;;
42488;SDS011;28118;52.388;9.452;2022-12-26T04:27:31;13.32;;;11.93;;
42488;SDS011;28118;52.388;9.452;2022-12-26T04:30:17;13.93;;;11.90;;
42488;SDS011;28118;52.388;9.452;2022-12-26T04:36:26;15.18;;;11.93;;
42488;SDS011;28118;52.388;9.452;2022-12-26T04:39:17;10.98;;;9.98;;
42488;SDS011;28118;52.388;9.452;2022-12-26T04:42:07;14.68;;;13.07;;
42488;SDS011;28118;52.388;9.452;2022-12-26T04:44:54;14.93;;;10.98;;
42488;SDS011;28118;52.388;9.452;2022-12-26T04:47:22;13.80;;;11.93;;
42488;SDS011;28118;52.388;9.452;2022-12-26T04:49:49;13.32;;;11.95;;
42488;SDS011;28118;52.388;9.452;2022-12-26T04:52:34;11.88;;;9.88;;
42488;SDS011;28118;52.388;9.452;2022-12-26T04:55:19;13.48;;;10.75;;
42488;SDS011;28118;52.388;9.452;2022-12-26T04:57:46;14.95;;;11.07;;
42488;SDS011;28118;52.388;9.452;2022-12-26T05:00:13;14.77;;;11.38;;
42488;SDS011;28118;52.388;9.452;2022-12-26T05:02:40;13.88;;;11.68;;
42488;SDS011;28118;52.388;9.452;2022-12-26T05:05:25;12.95;;;10.57;;
42488;SDS011;28118;52.388;9.452;2022-12-26T05:08:24;14.90;;;10.98;;
42488;SDS011;28118;52.388;9.452;2022-12-26T05:11:14;11.13;;;10.05;;
42488;SDS011;28118;52.388;9.452;2022-12-26T05:13:41;12.63;;;10.63;;
42488;SDS011;28118;52.388;9.452;2022-12-26T05:16:07;14.35;;;11.82;;
42488;SDS011;28118;52.388;9.452;2022-12-26T05:18:53;13.23;;;12.13;;
42488;SDS011;28118;52.388;9.452;2022-12-26T05:21:38;12.07;;;10.43;;
42488;SDS011;28118;52.388;9.452;2022-12-26T05:24:24;14.20;;;11.98;;
42488;SDS011;28118;52.388;9.452;2022-12-26T05:27:15;13.40;;;11.80;;
42488;SDS011;28118;52.388;9.452;2022-12-26T05:30:01;12.15;;;10.18;;
42488;SDS011;28118;52.388;9.452;2022-12-26T05:32:28;12.60;;;11.40;;
42488;SDS011;28118;52.388;9.452;2022-12-26T05:35:13;11.93;;;10.70;;
42488;SDS011;28118;52.388;9.452;2022-12-26T05:37:40;13.88;;;12.40;;
42488;SDS011;28118;52.388;9.452;2022-12-26T05:40:07;11.35;;;10.07;;
42488;SDS011;28118;52.388;9.452;2022-12-26T05:42:34;12.63;;;9.93;;
42488;SDS011;28118;52.388;9.452;2022-12-26T05:45:00;9.43;;;8.30;;
42488;SDS011;28118;52.388;9.452;2022-12-26T05:47:27;12.43;;;11.13;;
42488;SDS011;28118;52.388;9.452;2022-12-26T05:49:54;11.77;;;8.98;;
42488;SDS011;28118;52.388;9.452;2022-12-26T05:52:20;14.70;;;10.00;;
42488;SDS011;28118;52.388;9.452;2022-12-26T05:54:47;11.05;;;9.07;;
42488;SDS011;28118;52.388;9.452;2022-12-26T05:57:13;9.95;;;8.00;;
42488;SDS011;28118;52.388;9.452;2022-12-26T05:59:40;13.70;;;10.20;;
42488;SDS011;28118;52.388;9.452;2022-12-26T06:02:07;15.07;;;11.13;;
42488;SDS011;28118;52.388;9.452;2022-12-26T06:04:33;12.07;;;9.82;;
42488;SDS011;28118;52.388;9.452;2022-12-26T06:07:01;12.18;;;9.20;;
42488;SDS011;28118;52.388;9.452;2022-12-26T06:09:28;12.57;;;11.25;;
42488;SDS011;28118;52.388;9.452;2022-12-26T06:11:55;8.93;;;8.10;;
42488;SDS011;28118;52.388;9.452;2022-12-26T06:14:21;11.32;;;8.80;;
42488;SDS011;28118;52.388;9.452;2022-12-26T06:16:48;10.48;;;8.88;;
42488;SDS011;28118;52.388;9.452;2022-12-26T06:19:15;11.77;;;10.52;;
42488;SDS011;28118;52.388;9.452;2022-12-26T06:21:41;13.32;;;9.48;;
42488;SDS011;28118;52.388;9.452;2022-12-26T06:24:08;13.77;;;12.40;;
42488;SDS011;28118;52.388;9.452;2022-12-26T06:26:35;15.88;;;13.70;;
42488;SDS011;28118;52.388;9.452;2022-12-26T06:29:02;15.23;;;11.38;;
42488;SDS011;28118;52.388;9.452;2022-12-26T06:31:29;14.30;;;11.30;;
42488;SDS011;28118;52.388;9.452;2022-12-26T06:33:56;15.98;;;13.23;;
42488;SDS011;28118;52.388;9.452;2022-12-26T06:36:26;13.68;;;10.77;;
42488;SDS011;28118;52.388;9.452;2022-12-26T06:38:53;16.00;;;12.48;;
42488;SDS011;28118;52.388;9.452;2022-12-26T06:41:23;11.45;;;10.35;;
42488;SDS011;28118;52.388;9.452;2022-12-26T06:43:50;12.55;;;10.93;;
42488;SDS011;28118;52.388;9.452;2022-12-26T06:46:18;17.85;;;12.70;;
42488;SDS011;28118;52.388;9.452;2022-12-26T06:48:46;18.88;;;13.43;;
42488;SDS011;28118;52.388;9.452;2022-12-26T06:51:17;26.33;;;12.40;;
42488;SDS011;28118;52.388;9.452;2022-12-26T06:53:49;14.45;;;12.93;;
42488;SDS011;28118;52.388;9.452;2022-12-26T06:56:21;16.50;;;13.52;;
42488;SDS011;28118;52.388;9.452;2022-12-26T06:58:53;17.65;;;13.40;;
42488;SDS011;28118;52.388;9.452;2022-12-26T07:01:21;18.20;;;15.53;;
42488;SDS011;28118;52.388;9.452;2022-12-26T07:03:50;16.83;;;13.52;;
42488;SDS011;28118;52.388;9.452;2022-12-26T07:08:47;18.23;;;13.38;;
42488;SDS011;28118;52.388;9.452;2022-12-26T07:11:19;16.92;;;13.23;;
42488;SDS011;28118;52.388;9.452;2022-12-26T07:13:47;15.80;;;13.73;;
42488;SDS011;28118;52.388;9.452;2022-12-26T07:16:14;18.48;;;13.38;;
42488;SDS011;28118;52.388;9.452;2022-12-26T07:18:41;15.55;;;13.10;;
42488;SDS011;28118;52.388;9.452;2022-12-26T07:21:08;26.40;;;15.45;;
42488;SDS011;28118;52.388;9.452;2022-12-26T07:23:37;19.63;;;15.50;;
42488;SDS011;28118;52.388;9.452;2022-12-26T07:26:05;18.70;;;15.07;;
42488;SDS011;28118;52.388;9.452;2022-12-26T07:28:32;19.30;;;15.50;;
42488;SDS011;28118;52.388;9.452;2022-12-26T07:30:59;22.27;;;16.88;;
42488;SDS011;28118;52.388;9.452;2022-12-26T07:33:26;21.27;;;14.55;;
42488;SDS011;28118;52.388;9.452;2022-12-26T07:35:57;21.98;;;17.08;;
42488;SDS011;28118;52.388;9.452;2022-12-26T07:38:25;20.67;;;16.70;;
42488;SDS011;28118;52.388;9.452;2022-12-26T07:40:55;19.30;;;14.50;;
42488;SDS011;28118;52.388;9.452;2022-12-26T07:43:22;22.05;;;16.50;;
42488;SDS011;28118;52.388;9.452;2022-12-26T07:45:50;16.27;;;14.38;;
42488;SDS011;28118;52.388;9.452;2022-12-26T07:48:17;20.60;;;14.82;;
42488;SDS011;28118;52.388;9.452;2022-12-26T07:50:44;16.33;;;13.77;;
42488;SDS011;28118;52.388;9.452;2022-12-26T07:53:13;15.55;;;13.98;;
42488;SDS011;28118;52.388;9.452;2022-12-26T07:55:40;19.58;;;14.35;;
42488;SDS011;28118;52.388;9.452;2022-12-26T07:58:06;19.50;;;15.13;;
42488;SDS011;28118;52.388;9.452;2022-12-26T08:00:33;22.58;;;14.93;;
42488;SDS011;28118;52.388;9.452;2022-12-26T08:03:00;17.20;;;12.35;;
42488;SDS011;28118;52.388;9.452;2022-12-26T08:05:33;19.60;;;15.02;;
42488;SDS011;28118;52.388;9.452;2022-12-26T08:08:00;15.18;;;12.50;;
42488;SDS011;28118;52.388;9.452;2022-12-26T08:10:26;14.20;;;12.55;;
42488;SDS011;28118;52.388;9.452;2022-12-26T08:12:53;21.00;;;13.77;;
42488;SDS011;28118;52.388;9.452;2022-12-26T08:15:20;21.38;;;13.45;;
42488;SDS011;28118;52.388;9.452;2022-12-26T08:17:46;18.27;;;13.43;;
42488;SDS011;28118;52.388;9.452;2022-12-26T08:20:13;18.58;;;14.85;;
42488;SDS011;28118;52.388;9.452;2022-12-26T08:22:40;18.17;;;14.98;;
42488;SDS011;28118;52.388;9.452;2022-12-26T08:25:06;15.55;;;12.00;;
42488;SDS011;28118;52.388;9.452;2022-12-26T08:27:34;16.45;;;12.77;;
42488;SDS011;28118;52.388;9.452;2022-12-26T08:30:00;15.60;;;13.88;;
42488;SDS011;28118;52.388;9.452;2022-12-26T08:32:27;14.35;;;12.85;;
42488;SDS011;28118;52.388;9.452;2022-12-26T08:34:54;20.55;;;13.57;;
42488;SDS011;28118;52.388;9.452;2022-12-26T08:37:21;16.77;;;12.82;;
42488;SDS011;28118;52.388;9.452;2022-12-26T08:39:51;19.55;;;14.23;;
42488;SDS011;28118;52.388;9.452;2022-12-26T08:42:19;14.10;;;12.70;;
42488;SDS011;28118;52.388;9.452;2022-12-26T08:44:46;15.30;;;13.35;;
42488;SDS011;28118;52.388;9.452;2022-12-26T08:47:13;12.45;;;10.98;;
42488;SDS011;28118;52.388;9.452;2022-12-26T08:49:40;13.05;;;11.63;;
42488;SDS011;28118;52.388;9.452;2022-12-26T08:52:07;16.00;;;10.50;;
42488;SDS011;28118;52.388;9.452;2022-12-26T08:54:34;14.20;;;10.18;;
42488;SDS011;28118;52.388;9.452;2022-12-26T08:57:00;13.32;;;11.10;;
42488;SDS011;28118;52.388;9.452;2022-12-26T08:59:27;12.70;;;10.13;;
42488;SDS011;28118;52.388;9.452;2022-12-26T09:01:54;15.80;;;11.02;;
42488;SDS011;28118;52.388;9.452;2022-12-26T09:04:21;19.52;;;12.23;;
42488;SDS011;28118;52.388;9.452;2022-12-26T09:06:48;14.32;;;12.82;;
42488;SDS011;28118;52.388;9.452;2022-12-26T09:09:14;13.00;;;11.60;;
42488;SDS011;28118;52.388;9.452;2022-12-26T09:11:41;12.95;;;9.65;;
42488;SDS011;28118;52.388;9.452;2022-12-26T09:14:08;12.93;;;9.35;;
42488;SDS011;28118;52.388;9.452;2022-12-26T09:16:43;14.90;;;9.80;;
42488;SDS011;28118;52.388;9.452;2022-12-26T09:19:16;7.97;;;7.18;;
42488;SDS011;28118;52.388;9.452;2022-12-26T09:21:45;13.85;;;11.73;;
42488;SDS011;28118;52.388;9.452;2022-12-26T09:24:13;11.93;;;10.18;;
42488;SDS011;28118;52.388;9.452;2022-12-26T09:26:43;9.45;;;8.57;;
42488;SDS011;28118;52.388;9.452;2022-12-26T09:29:10;9.43;;;6.82;;
42488;SDS011;28118;52.388;9.452;2022-12-26T09:31:38;7.95;;;7.25;;
42488;SDS011;28118;52.388;9.452;2022-12-26T09:34:05;10.13;;;8.57;;
42488;SDS011;28118;52.388;9.452;2022-12-26T09:36:34;8.20;;;7.47;;
42488;SDS011;28118;52.388;9.452;2022-12-26T09:39:06;9.40;;;7.75;;
42488;SDS011;28118;52.388;9.452;2022-12-26T09:47:11;8.02;;;7.22;;
42488;SDS011;28118;52.388;9.452;2022-12-26T09:49:45;9.88;;;8.93;;
42488;SDS011;28118;52.388;9.452;2022-12-26T09:52:22;8.73;;;7.93;;
42488;SDS011;28118;52.388;9.452;2022-12-26T09:54:58;7.85;;;6.97;;
42488;SDS011;28118;52.388;9.452;2022-12-26T09:57:38;14.02;;;7.65;;
42488;SDS011;28118;52.388;9.452;2022-12-26T10:00:15;7.40;;;6.70;;
42488;SDS011;28118;52.388;9.452;2022-12-26T10:02:50;8.48;;;7.43;;
42488;SDS011;28118;52.388;9.452;2022-12-26T10:05:22;10.38;;;9.05;;
42488;SDS011;28118;52.388;9.452;2022-12-26T10:07:55;9.88;;;8.38;;
42488;SDS011;28118;52.388;9.452;2022-12-26T10:13:28;9.20;;;8.20;;
42488;SDS011;28118;52.388;9.452;2022-12-26T10:16:07;8.85;;;7.63;;
42488;SDS011;28118;52.388;9.452;2022-12-26T10:23:57;9.48;;;8.43;;
42488;SDS011;28118;52.388;9.452;2022-12-26T10:26:33;9.48;;;8.52;;
42488;SDS011;28118;52.388;9.452;2022-12-26T10:29:10;9.65;;;8.65;;
42488;SDS011;28118;52.388;9.452;2022-12-26T10:31:47;8.07;;;7.47;;
42488;SDS011;28118;52.388;9.452;2022-12-26T10:34:30;8.98;;;8.07;;
42488;SDS011;28118;52.388;9.452;2022-12-26T10:40:37;9.52;;;8.55;;
42488;SDS011;28118;52.388;9.452;2022-12-26T10:42:52;16.85;;;9.15;;
42488;SDS011;28118;52.388;9.452;2022-12-26T10:45:35;9.40;;;8.23;;
42488;SDS011;28118;52.388;9.452;2022-12-26T10:48:03;11.07;;;7.65;;
42488;SDS011;28118;52.388;9.452;2022-12-26T10:50:33;11.88;;;10.70;;
42488;SDS011;28118;52.388;9.452;2022-12-26T10:53:02;10.30;;;9.40;;
42488;SDS011;28118;52.388;9.452;2022-12-26T10:55:32;11.53;;;9.13;;
42488;SDS011;28118;52.388;9.452;2022-12-26T10:58:04;9.98;;;8.98;;
42488;SDS011;28118;52.388;9.452;2022-12-26T11:00:39;11.65;;;10.55;;
42488;SDS011;28118;52.388;9.452;2022-12-26T11:05:43;10.52;;;9.38;;
42488;SDS011;28118;52.388;9.452;2022-12-26T11:08:37;8.80;;;7.97;;
42488;SDS011;28118;52.388;9.452;2022-12-26T11:11:12;8.65;;;7.95;;
42488;SDS011;28118;52.388;9.452;2022-12-26T11:13:46;9.23;;;7.63;;
42488;SDS011;28118;52.388;9.452;2022-12-26T11:16:51;9.13;;;8.27;;
42488;SDS011;28118;52.388;9.452;2022-12-26T11:19:36;14.73;;;7.97;;
42488;SDS011;28118;52.388;9.452;2022-12-26T11:27:39;11.85;;;5.95;;
42488;SDS011;28118;52.388;9.452;2022-12-26T11:32:42;6.87;;;6.17;;
42488;SDS011;28118;52.388;9.452;2022-12-26T11:35:15;8.20;;;5.07;;
42488;SDS011;28118;52.388;9.452;2022-12-26T11:37:43;5.60;;;5.07;;
42488;SDS011;28118;52.388;9.452;2022-12-26T11:40:15;9.07;;;5.13;;
42488;SDS011;28118;52.388;9.452;2022-12-26T11:42:47;5.40;;;4.90;;
42488;SDS011;28118;52.388;9.452;2022-12-26T11:45:19;6.88;;;6.22;;
42488;SDS011;28118;52.388;9.452;2022-12-26T11:47:49;5.53;;;5.03;;
42488;SDS011;28118;52.388;9.452;2022-12-26T11:50:16;8.27;;;4.78;;
42488;SDS011;28118;52.388;9.452;2022-12-26T11:58:14;6.32;;;5.13;;
42488;SDS011;28118;52.388;9.452;2022-12-26T12:03:27;7.07;;;5.45;;
42488;SDS011;28118;52.388;9.452;2022-12-26T12:16:44;6.38;;;4.90;;
42488;SDS011;28118;52.388;9.452;2022-12-26T12:19:35;8.40;;;4.55;;
42488;SDS011;28118;52.388;9.452;2022-12-26T12:25:19;3.72;;;3.40;;
42488;SDS011;28118;52.388;9.452;2022-12-26T12:33:37;6.45;;;4.38;;
42488;SDS011;28118;52.388;9.452;2022-12-26T12:48:04;4.88;;;4.47;;
42488;SDS011;28118;52.388;9.452;2022-12-26T12:50:43;8.80;;;4.93;;
42488;SDS011;28118;52.388;9.452;2022-12-26T12:56:31;5.05;;;4.55;;
42488;SDS011;28118;52.388;9.452;2022-12-26T13:02:09;5.38;;;4.55;;
42488;SDS011;28118;52.388;9.452;2022-12-26T13:04:47;7.03;;;5.65;;
42488;SDS011;28118;52.388;9.452;2022-12-26T13:07:20;6.53;;;5.97;;
42488;SDS011;28118;52.388;9.452;2022-12-26T13:09:58;5.57;;;4.63;;
42488;SDS011;28118;52.388;9.452;2022-12-26T13:12:31;5.70;;;5.20;;
42488;SDS011;28118;52.388;9.452;2022-12-26T13:15:22;9.18;;;5.65;;
42488;SDS011;28118;52.388;9.452;2022-12-26T13:18:02;5.00;;;4.60;;
42488;SDS011;28118;52.388;9.452;2022-12-26T13:20:41;7.03;;;5.13;;
42488;SDS011;28118;52.388;9.452;2022-12-26T13:23:16;8.82;;;4.85;;
42488;SDS011;28118;52.388;9.452;2022-12-26T13:26:25;4.20;;;3.88;;
42488;SDS011;28118;52.388;9.452;2022-12-26T13:32:12;5.70;;;4.47;;
42488;SDS011;28118;52.388;9.452;2022-12-26T13:34:50;5.47;;;4.97;;
42488;SDS011;28118;52.388;9.452;2022-12-26T13:38:01;5.43;;;4.93;;
42488;SDS011;28118;52.388;9.452;2022-12-26T13:40:19;5.63;;;4.20;;
42488;SDS011;28118;52.388;9.452;2022-12-26T13:42:50;3.17;;;2.88;;
42488;SDS011;28118;52.388;9.452;2022-12-26T13:48:45;2.50;;;1.75;;
42488;SDS011;28118;52.388;9.452;2022-12-26T13:51:02;4.72;;;4.15;;
42488;SDS011;28118;52.388;9.452;2022-12-26T13:53:31;4.18;;;3.85;;
42488;SDS011;28118;52.388;9.452;2022-12-26T13:56:03;3.95;;;1.98;;
42488;SDS011;28118;52.388;9.452;2022-12-26T14:01:43;3.78;;;3.05;;
42488;SDS011;28118;52.388;9.452;2022-12-26T14:07:29;3.72;;;2.95;;
42488;SDS011;28118;52.388;9.452;2022-12-26T14:10:13;6.22;;;2.90;;
42488;SDS011;28118;52.388;9.452;2022-12-26T14:15:33;15.93;;;2.85;;
42488;SDS011;28118;52.388;9.452;2022-12-26T14:23:51;3.00;;;2.70;;
42488;SDS011;28118;52.388;9.452;2022-12-26T14:29:23;2.65;;;2.00;;
42488;SDS011;28118;52.388;9.452;2022-12-26T14:38:10;17.50;;;2.72;;
42488;SDS011;28118;52.388;9.452;2022-12-26T14:40:57;2.78;;;2.17;;
42488;SDS011;28118;52.388;9.452;2022-12-26T14:48:58;16.20;;;2.90;;
42488;SDS011;28118;52.388;9.452;2022-12-26T14:51:42;3.83;;;2.45;;
42488;SDS011;28118;52.388;9.452;2022-12-26T14:54:42;3.00;;;2.22;;
42488;SDS011;28118;52.388;9.452;2022-12-26T14:57:34;11.15;;;2.45;;
42488;SDS011;28118;52.388;9.452;2022-12-26T15:05:25;4.43;;;1.77;;
42488;SDS011;28118;52.388;9.452;2022-12-26T15:08:17;7.85;;;1.95;;
42488;SDS011;28118;52.388;9.452;2022-12-26T15:10:58;7.55;;;2.38;;
42488;SDS011;28118;52.388;9.452;2022-12-26T15:13:47;8.38;;;1.77;;
42488;SDS011;28118;52.388;9.452;2022-12-26T15:33:20;8.68;;;3.47;;
42488;SDS011;28118;52.388;9.452;2022-12-26T15:36:05;2.28;;;1.48;;
42488;SDS011;28118;52.388;9.452;2022-12-26T15:38:45;6.53;;;1.67;;
42488;SDS011;28118;52.388;9.452;2022-12-26T15:41:25;2.95;;;1.65;;
42488;SDS011;28118;52.388;9.452;2022-12-26T15:46:40;3.28;;;2.92;;
42488;SDS011;28118;52.388;9.452;2022-12-26T16:00:55;3.60;;;1.52;;
42488;SDS011;28118;52.388;9.452;2022-12-26T16:03:41;1.65;;;1.02;;
42488;SDS011;28118;52.388;9.452;2022-12-26T16:09:19;3.47;;;1.83;;
42488;SDS011;28118;52.388;9.452;2022-12-26T16:12:19;2.78;;;1.70;;
42488;SDS011;28118;52.388;9.452;2022-12-26T16:14:59;8.40;;;2.00;;
42488;SDS011;28118;52.388;9.452;2022-12-26T16:17:26;5.55;;;2.63;;
42488;SDS011;28118;52.388;9.452;2022-12-26T16:19:53;8.68;;;4.07;;
42488;SDS011;28118;52.388;9.452;2022-12-26T16:25:17;3.20;;;2.63;;
42488;SDS011;28118;52.388;9.452;2022-12-26T16:27:52;5.40;;;3.55;;
42488;SDS011;28118;52.388;9.452;2022-12-26T16:30:22;4.30;;;3.03;;
42488;SDS011;28118;52.388;9.452;2022-12-26T16:32:52;7.22;;;3.05;;
42488;SDS011;28118;52.388;9.452;2022-12-26T16:35:27;4.75;;;2.85;;
42488;SDS011;28118;52.388;9.452;2022-12-26T16:37:58;4.53;;;3.45;;
42488;SDS011;28118;52.388;9.452;2022-12-26T16:40:30;6.25;;;4.00;;
42488;SDS011;28118;52.388;9.452;2022-12-26T16:43:21;12.85;;;3.97;;
42488;SDS011;28118;52.388;9.452;2022-12-26T16:45:52;15.60;;;8.05;;
42488;SDS011;28118;52.388;9.452;2022-12-26T16:48:24;8.75;;;5.43;;
42488;SDS011;28118;52.388;9.452;2022-12-26T16:51:03;22.50;;;6.13;;
42488;SDS011;28118;52.388;9.452;2022-12-26T16:59:03;13.43;;;7.65;;
42488;SDS011;28118;52.388;9.452;2022-12-26T17:01:47;10.55;;;4.97;;
42488;SDS011;28118;52.388;9.452;2022-12-26T17:04:20;9.15;;;6.68;;
42488;SDS011;28118;52.388;9.452;2022-12-26T17:06:51;22.55;;;12.90;;
42488;SDS011;28118;52.388;9.452;2022-12-26T17:09:24;7.57;;;3.42;;
42488;SDS011;28118;52.388;9.452;2022-12-26T17:11:58;7.85;;;2.67;;
42488;SDS011;28118;52.388;9.452;2022-12-26T17:14:34;9.48;;;2.72;;
42488;SDS011;28118;52.388;9.452;2022-12-26T17:17:07;4.85;;;3.35;;
42488;SDS011;28118;52.388;9.452;2022-12-26T17:19:53;3.47;;;3.00;;
42488;SDS011;28118;52.388;9.452;2022-12-26T17:22:31;11.73;;;4.18;;
42488;SDS011;28118;52.388;9.452;2022-12-26T17:25:18;10.10;;;3.75;;
42488;SDS011;28118;52.388;9.452;2022-12-26T17:27:47;3.53;;;2.35;;
42488;SDS011;28118;52.388;9.452;2022-12-26T17:30:34;5.55;;;3.45;;
42488;SDS011;28118;52.388;9.452;2022-12-26T17:33:10;13.65;;;4.55;;
42488;SDS011;28118;52.388;9.452;2022-12-26T17:35:40;12.70;;;4.10;;
42488;SDS011;28118;52.388;9.452;2022-12-26T17:38:30;6.28;;;1.80;;
42488;SDS011;28118;52.388;9.452;2022-12-26T17:41:00;5.78;;;2.22;;
42488;SDS011;28118;52.388;9.452;2022-12-26T17:43:34;6.97;;;4.28;;
42488;SDS011;28118;52.388;9.452;2022-12-26T17:46:03;10.20;;;4.70;;
42488;SDS011;28118;52.388;9.452;2022-12-26T17:48:31;8.45;;;4.63;;
42488;SDS011;28118;52.388;9.452;2022-12-26T17:51:00;1.70;;;1.48;;
42488;SDS011;28118;52.388;9.452;2022-12-26T17:53:34;5.07;;;2.47;;
42488;SDS011;28118;52.388;9.452;2022-12-26T17:56:18;8.15;;;4.35;;
42488;SDS011;28118;52.388;9.452;2022-12-26T17:58:48;12.05;;;3.88;;
42488;SDS011;28118;52.388;9.452;2022-12-26T18:01:15;11.07;;;5.25;;
42488;SDS011;28118;52.388;9.452;2022-12-26T18:03:47;5.68;;;3.67;;
42488;SDS011;28118;52.388;9.452;2022-12-26T18:06:15;7.72;;;4.88;;
42488;SDS011;28118;52.388;9.452;2022-12-26T18:08:42;7.03;;;2.53;;
42488;SDS011;28118;52.388;9.452;2022-12-26T18:11:10;15.93;;;3.47;;
42488;SDS011;28118;52.388;9.452;2022-12-26T18:13:38;8.48;;;4.25;;
42488;SDS011;28118;52.388;9.452;2022-12-26T18:16:05;11.93;;;3.88;;
42488;SDS011;28118;52.388;9.452;2022-12-26T18:18:37;17.95;;;6.75;;
42488;SDS011;28118;52.388;9.452;2022-12-26T18:23:33;15.25;;;5.38;;
42488;SDS011;28118;52.388;9.452;2022-12-26T18:26:01;10.25;;;3.33;;
42488;SDS011;28118;52.388;9.452;2022-12-26T18:28:30;4.18;;;3.15;;
42488;SDS011;28118;52.388;9.452;2022-12-26T18:30:58;26.85;;;4.03;;
42488;SDS011;28118;52.388;9.452;2022-12-26T18:33:24;8.02;;;4.75;;
42488;SDS011;28118;52.388;9.452;2022-12-26T18:35:51;6.15;;;4.10;;
42488;SDS011;28118;52.388;9.452;2022-12-26T18:38:19;5.07;;;3.22;;
42488;SDS011;28118;52.388;9.452;2022-12-26T18:40:48;8.93;;;5.32;;
42488;SDS011;28118;52.388;9.452;2022-12-26T18:43:17;4.35;;;3.53;;
42488;SDS011;28118;52.388;9.452;2022-12-26T18:45:44;9.50;;;4.63;;